Main page
METAR-TAF:

METAR-TAF

Airports :

Caen, France

Caen – Carpiquet Airport

latitude: 49-11N, longitude: 000-27W, elevation: 78 m

Current weather observation

The report was made 15 minutes ago, at 09:00 UTC
Wind 8 kt from the South
Temperature 14°C
Humidity 63%
Pressure 1026 hPa
Visibility 10 km or more

METAR: LFRK 290900Z AUTO 19008KT 9999 NSC 14/07 Q1026 NOSIG

Time: 11:15 (09:15 UTC)

Forecast

The report was made 1 hour and 15 minutes ago, at 08:00 UTC
Forecast valid from 29 at 09 UTC to 29 at 18 UTC
Wind 10 kt from the South/Southwest
Visibility 10 km or more
Broken clouds at a height of 4500 ft

TAF: LFRK 290800Z 2909/2918 20010KT 9999 BKN045

Weather observations and forecasts of more than 4000 airports (METAR and TAF reports).

The available stations are represented by yellow and red dots on the map.

Hover mouse over dot to see the name of the station.

Then click to see weather observations and forecasts.

To change the map : click on the green buttons with a black cross to zoom in, on the green button with a dash to zoom out, or on the green arrows for adjacent maps.


METAR-TAF: